createdAt,value
2023-04-08T00:10:23.277Z,69.26
2023-04-08T00:12:53.551Z,69.01
2023-04-08T00:15:23.814Z,69.21
2023-04-08T00:17:55.973Z,69.03
2023-04-08T00:20:27.014Z,69.40
2023-04-08T00:22:57.789Z,69.03
2023-04-08T00:25:28.104Z,69.30
2023-04-08T00:27:59.304Z,69.43
2023-04-08T00:30:30.690Z,68.98
2023-04-08T00:33:00.953Z,68.88
2023-04-08T00:35:31.383Z,69.13
2023-04-08T00:38:01.624Z,69.03
2023-04-08T00:40:31.913Z,69.04
2023-04-08T00:43:02.095Z,69.37
2023-04-08T00:45:32.355Z,69.03
2023-04-08T00:48:02.957Z,69.35
2023-04-08T00:50:33.505Z,69.30
2023-04-08T00:53:03.686Z,68.84
2023-04-08T00:55:33.911Z,69.14
2023-04-08T00:58:04.399Z,68.90
2023-04-08T01:00:35.428Z,69.02
2023-04-08T01:03:13.397Z,68.92
2023-04-08T01:06:05.064Z,69.02
2023-04-08T01:08:40.030Z,69.26
2023-04-08T01:11:14.674Z,69.58
2023-04-08T01:13:47.317Z,69.68
2023-04-08T01:16:19.840Z,69.37
2023-04-08T01:18:55.831Z,70.09
2023-04-08T01:21:27.416Z,69.37
2023-04-08T01:24:26.553Z,69.57
2023-04-08T01:27:01.409Z,69.32
2023-04-08T01:29:33.748Z,69.17
2023-04-08T01:32:04.824Z,69.45
2023-04-08T01:34:37.110Z,69.44
2023-04-08T01:37:09.000Z,69.03
2023-04-08T01:39:41.433Z,68.75
2023-04-08T01:42:12.357Z,68.90
2023-04-08T01:44:43.763Z,68.94
2023-04-08T01:47:15.967Z,68.94
2023-04-08T01:49:48.234Z,68.66
2023-04-08T01:52:21.088Z,68.79
2023-04-08T01:54:51.622Z,69.02
2023-04-08T01:57:30.983Z,68.44
2023-04-08T02:00:08.390Z,68.67
2023-04-08T02:02:52.517Z,68.46
2023-04-08T02:05:23.525Z,68.49
2023-04-08T02:07:54.848Z,68.79
2023-04-08T02:10:25.396Z,68.24
2023-04-08T02:12:56.505Z,68.54
2023-04-08T02:15:54.399Z,68.21
2023-04-08T02:21:21.753Z,68.04
2023-04-08T02:23:53.781Z,67.91
2023-04-08T02:26:45.738Z,67.67
2023-04-08T02:29:18.603Z,67.88
2023-04-08T02:31:50.989Z,67.89
2023-04-08T02:34:25.046Z,68.04
2023-04-08T02:36:55.622Z,68.14
2023-04-08T02:39:34.406Z,67.81
2023-04-08T02:42:23.228Z,68.01
2023-04-08T02:44:56.438Z,67.90
2023-04-08T02:47:26.548Z,68.04
2023-04-08T02:49:57.661Z,68.25
2023-04-08T02:52:28.015Z,67.85
2023-04-08T02:54:58.527Z,68.02
2023-04-08T02:57:29.169Z,67.49
2023-04-08T02:59:59.609Z,67.59
2023-04-08T03:02:29.913Z,68.17
2023-04-08T03:05:18.870Z,68.11
2023-04-08T03:08:09.187Z,67.40
2023-04-08T03:10:39.639Z,67.39
2023-04-08T03:13:09.929Z,67.33
2023-04-08T03:15:40.321Z,66.91
2023-04-08T03:18:10.722Z,67.08
2023-04-08T03:20:41.035Z,67.02
2023-04-08T03:23:11.445Z,66.74
2023-04-08T03:25:41.702Z,66.58
2023-04-08T03:28:12.042Z,66.72
2023-04-08T03:30:42.256Z,66.12
2023-04-08T03:33:12.479Z,66.14
2023-04-08T03:35:42.919Z,65.81
2023-04-08T03:38:14.565Z,65.98
2023-04-08T03:40:44.833Z,65.96
2023-04-08T03:43:16.308Z,66.12
2023-04-08T03:45:46.884Z,65.85
2023-04-08T03:48:17.297Z,65.66
2023-04-08T03:50:47.606Z,65.38
2023-04-08T03:53:19.059Z,65.69
2023-04-08T03:55:51.329Z,65.49
2023-04-08T03:58:21.811Z,64.87
2023-04-08T04:00:52.128Z,65.27
2023-04-08T04:03:23.150Z,64.80
2023-04-08T04:05:53.831Z,64.81
2023-04-08T04:08:24.155Z,64.39
2023-04-08T04:10:54.448Z,64.09
2023-04-08T04:13:24.957Z,63.78
2023-04-08T04:15:55.364Z,63.76
2023-04-08T04:18:25.786Z,63.67
2023-04-08T04:20:56.201Z,63.69
2023-04-08T04:23:28.219Z,63.13
2023-04-08T04:25:58.546Z,63.22
2023-04-08T04:28:28.806Z,62.93
2023-04-08T04:30:58.990Z,63.24
2023-04-08T04:33:29.656Z,62.49
2023-04-08T04:36:00.041Z,62.18
2023-04-08T04:38:30.575Z,62.42
2023-04-08T04:41:01.449Z,62.00
2023-04-08T04:43:31.761Z,62.57
2023-04-08T04:46:02.205Z,61.96
2023-04-08T04:48:32.506Z,62.10
2023-04-08T04:51:05.703Z,61.85
2023-04-08T04:53:36.137Z,61.63
2023-04-08T04:56:06.568Z,61.42
2023-04-08T04:58:36.737Z,61.67
2023-04-08T05:01:06.873Z,61.18
2023-04-08T05:03:37.158Z,60.52
2023-04-08T05:06:07.924Z,60.95
2023-04-08T05:08:38.307Z,60.78
2023-04-08T05:11:12.773Z,60.55
2023-04-08T05:13:43.084Z,60.65
2023-04-08T05:16:13.640Z,60.32
2023-04-08T05:18:43.909Z,60.22
2023-04-08T05:21:14.309Z,60.54
2023-04-08T05:23:44.599Z,60.41
2023-04-08T05:26:16.293Z,60.64
2023-04-08T05:28:46.904Z,60.22
2023-04-08T05:31:22.888Z,59.87
2023-04-08T05:33:53.274Z,60.20
2023-04-08T05:36:23.565Z,60.32
2023-04-08T05:38:53.870Z,60.48
2023-04-08T05:41:24.274Z,59.86
2023-04-08T05:43:54.527Z,60.01
2023-04-08T05:46:24.868Z,59.64
2023-04-08T05:48:55.099Z,59.93
2023-04-08T05:51:25.292Z,59.85
2023-04-08T05:53:55.614Z,59.43
2023-04-08T05:56:25.838Z,59.55
2023-04-08T05:58:56.178Z,59.13
2023-04-08T06:01:26.544Z,58.86
2023-04-08T06:03:58.764Z,58.74
2023-04-08T06:06:29.314Z,58.70
2023-04-08T06:08:59.518Z,58.58
2023-04-08T06:11:29.617Z,58.66
2023-04-08T06:13:59.811Z,58.51
2023-04-08T06:16:30.012Z,58.07
2023-04-08T06:19:00.433Z,58.15
2023-04-08T06:21:30.970Z,57.75
2023-04-08T06:24:01.380Z,57.51
2023-04-08T06:26:31.692Z,57.09
2023-04-08T06:29:02.009Z,57.07
2023-04-08T06:31:32.415Z,57.44
2023-04-08T06:34:02.821Z,57.26
2023-04-08T06:36:33.063Z,56.98
2023-04-08T06:39:03.433Z,57.13
2023-04-08T06:41:33.980Z,57.18
2023-04-08T06:44:20.434Z,57.03
2023-04-08T06:46:50.744Z,56.84
2023-04-08T06:49:21.038Z,57.13
2023-04-08T06:51:51.499Z,56.98
2023-04-08T06:54:21.646Z,57.23
2023-04-08T06:56:51.848Z,56.87
2023-04-08T06:59:22.069Z,56.93
2023-04-08T07:01:53.050Z,56.84
2023-04-08T07:04:23.391Z,56.72
2023-04-08T07:06:54.052Z,56.34
2023-04-08T07:09:24.233Z,56.17
2023-04-08T07:11:54.644Z,56.11
2023-04-08T07:14:24.897Z,55.84
2023-04-08T07:16:55.364Z,55.58
2023-04-08T07:19:26.709Z,55.62
2023-04-08T07:21:57.274Z,55.83
2023-04-08T07:24:27.843Z,55.73
2023-04-08T07:26:59.262Z,55.52
2023-04-08T07:29:30.395Z,55.37
2023-04-08T07:32:00.648Z,55.10
2023-04-08T07:34:31.037Z,55.06
2023-04-08T07:37:01.275Z,54.62
2023-04-08T07:39:31.801Z,55.17
2023-04-08T07:42:02.031Z,54.82
2023-04-08T07:44:33.549Z,55.14
2023-04-08T07:47:04.108Z,54.99
2023-04-08T07:49:34.529Z,54.90
2023-04-08T07:52:04.812Z,54.94
2023-04-08T07:54:38.604Z,54.65
2023-04-08T07:57:09.007Z,54.76
2023-04-08T07:59:39.413Z,54.69
2023-04-08T08:02:09.811Z,54.85
2023-04-08T08:04:40.292Z,54.94
2023-04-08T08:07:10.750Z,54.73
2023-04-08T08:09:40.931Z,54.45
2023-04-08T08:12:11.157Z,54.29
2023-04-08T08:14:41.629Z,54.12
2023-04-08T08:17:11.893Z,54.10
2023-04-08T08:19:42.000Z,54.02
2023-04-08T08:22:14.121Z,53.83
2023-04-08T08:24:45.301Z,53.66
2023-04-08T08:27:15.237Z,53.51
2023-04-08T08:29:45.341Z,53.36
2023-04-08T08:32:16.150Z,53.20
2023-04-08T08:34:46.405Z,53.44
2023-04-08T08:37:16.584Z,53.13
2023-04-08T08:39:46.862Z,53.26
2023-04-08T08:42:27.101Z,53.09
2023-04-08T08:44:57.845Z,53.14
2023-04-08T08:47:28.242Z,53.37
2023-04-08T08:49:58.725Z,53.01
2023-04-08T08:52:29.025Z,53.46
2023-04-08T08:55:16.745Z,52.96
2023-04-08T08:57:54.712Z,52.68
2023-04-08T09:00:41.060Z,52.95
2023-04-08T09:03:30.443Z,52.83
2023-04-08T09:06:02.660Z,52.65
2023-04-08T09:08:37.961Z,53.08
2023-04-08T09:11:16.032Z,52.67
2023-04-08T09:13:48.087Z,52.47
2023-04-08T09:16:22.641Z,52.59
2023-04-08T09:18:53.446Z,52.47
2023-04-08T09:21:27.530Z,52.79
2023-04-08T09:23:57.924Z,52.47
2023-04-08T09:26:29.320Z,52.59
2023-04-08T09:29:18.155Z,52.53
2023-04-08T09:32:03.037Z,52.35
2023-04-08T09:34:34.806Z,52.47
2023-04-08T09:37:05.179Z,52.12
2023-04-08T09:39:35.604Z,52.04
2023-04-08T09:42:09.344Z,51.76
2023-04-08T09:44:42.337Z,51.79
2023-04-08T09:47:22.621Z,51.78
2023-04-08T09:49:58.540Z,51.82
2023-04-08T09:52:46.921Z,51.43
2023-04-08T09:55:20.318Z,52.02
2023-04-08T09:58:02.328Z,52.41
2023-04-08T10:00:41.270Z,52.67
2023-04-08T10:03:30.337Z,53.05
2023-04-08T10:06:03.842Z,52.95
2023-04-08T10:08:35.513Z,53.09
2023-04-08T10:11:06.132Z,53.09
2023-04-08T10:13:37.274Z,53.64
2023-04-08T10:16:25.339Z,53.98
2023-04-08T10:18:59.578Z,53.71
2023-04-08T10:21:40.558Z,53.84
2023-04-08T10:24:12.863Z,54.46
2023-04-08T10:26:47.769Z,55.08
2023-04-08T10:29:20.850Z,55.13
2023-04-08T10:31:53.139Z,55.99
2023-04-08T10:34:27.223Z,56.73
2023-04-08T10:37:01.263Z,57.29
2023-04-08T10:39:31.772Z,58.27
2023-04-08T10:42:05.049Z,58.36
2023-04-08T10:44:36.366Z,58.57
2023-04-08T10:47:06.295Z,58.64
2023-04-08T10:49:37.976Z,58.59
2023-04-08T10:52:11.922Z,59.01
2023-04-08T10:54:50.867Z,59.93
2023-04-08T10:57:28.327Z,60.53
2023-04-08T10:59:59.766Z,60.48
2023-04-08T11:02:36.687Z,61.32
2023-04-08T11:05:07.293Z,61.20
2023-04-08T11:07:44.092Z,60.64
2023-04-08T11:10:14.708Z,60.48
2023-04-08T11:12:45.914Z,60.58
2023-04-08T11:15:17.313Z,60.48
2023-04-08T11:17:47.803Z,60.29
2023-04-08T11:20:18.685Z,60.44
2023-04-08T11:22:50.373Z,60.25
2023-04-08T11:25:20.947Z,60.22
2023-04-08T11:27:52.676Z,59.98
2023-04-08T11:30:24.243Z,59.37
2023-04-08T11:32:54.983Z,59.38
2023-04-08T11:35:25.528Z,59.19
2023-04-08T11:37:56.933Z,59.06
2023-04-08T11:40:27.432Z,59.44
2023-04-08T11:42:58.144Z,59.35
2023-04-08T11:45:28.557Z,59.64
2023-04-08T11:47:59.150Z,59.53
2023-04-08T11:50:32.377Z,59.25
2023-04-08T11:53:02.852Z,59.58
2023-04-08T11:55:35.244Z,59.51
2023-04-08T11:58:08.525Z,59.17
2023-04-08T12:00:39.882Z,59.15
2023-04-08T12:03:11.131Z,59.26
2023-04-08T12:05:42.458Z,59.46
2023-04-08T12:08:12.518Z,59.34
2023-04-08T12:10:43.456Z,59.07
2023-04-08T12:13:13.779Z,59.03
2023-04-08T12:15:44.643Z,58.86
2023-04-08T12:18:15.161Z,59.51
2023-04-08T12:20:45.516Z,59.47
2023-04-08T12:23:15.806Z,59.39
2023-04-08T12:25:46.533Z,59.65
2023-04-08T12:28:16.980Z,59.84
2023-04-08T12:30:47.288Z,60.08
2023-04-08T12:33:18.110Z,60.09
2023-04-08T12:35:48.521Z,60.22
2023-04-08T12:38:18.950Z,60.50
2023-04-08T12:40:50.275Z,60.85
2023-04-08T12:43:20.771Z,60.71
2023-04-08T12:45:51.829Z,61.24
2023-04-08T12:48:22.692Z,61.59
2023-04-08T12:50:52.975Z,61.72
2023-04-08T12:56:06.809Z,61.93
2023-04-08T12:58:37.297Z,61.75
2023-04-08T13:01:08.715Z,62.15
2023-04-08T13:03:39.239Z,62.46
2023-04-08T13:06:09.797Z,62.42
2023-04-08T13:08:40.150Z,62.66
2023-04-08T13:11:13.466Z,62.64
2023-04-08T13:13:43.981Z,62.91
2023-04-08T13:16:14.379Z,63.18
2023-04-08T13:18:45.083Z,63.52
2023-04-08T13:21:15.406Z,63.68
2023-04-08T13:23:45.590Z,64.02
2023-04-08T13:26:16.630Z,63.74
2023-04-08T13:28:56.542Z,63.86
2023-04-08T13:31:28.384Z,63.79
2023-04-08T13:33:58.871Z,63.42
2023-04-08T13:36:30.893Z,63.58
2023-04-08T13:39:01.639Z,63.58
2023-04-08T13:41:32.572Z,63.62
2023-04-08T13:44:03.218Z,63.49
2023-04-08T13:46:33.679Z,63.43
2023-04-08T13:49:06.142Z,63.14
2023-04-08T13:51:36.422Z,62.93
2023-04-08T13:54:07.063Z,63.19
2023-04-08T13:56:37.265Z,62.80
2023-04-08T13:59:07.958Z,63.04
2023-04-08T14:01:38.400Z,62.94
2023-04-08T14:04:09.657Z,62.78
2023-04-08T14:06:40.086Z,62.58
2023-04-08T14:09:10.373Z,62.55
2023-04-08T14:11:40.690Z,62.47
2023-04-08T14:14:10.949Z,62.59
2023-04-08T14:16:41.480Z,62.82
2023-04-08T14:19:12.296Z,62.92
2023-04-08T14:21:42.870Z,63.24
2023-04-08T14:24:13.860Z,63.29
2023-04-08T14:26:44.709Z,63.59
2023-04-08T14:29:15.639Z,63.53
2023-04-08T14:31:45.770Z,63.51
2023-04-08T14:34:15.964Z,63.32
2023-04-08T14:36:47.868Z,63.01
2023-04-08T15:31:08.367Z,65.80
2023-04-08T15:33:43.663Z,65.62
2023-04-08T15:36:14.485Z,65.61
2023-04-08T15:38:44.845Z,65.65
2023-04-08T15:41:22.201Z,65.49
2023-04-08T15:43:52.657Z,65.58
2023-04-08T15:46:24.008Z,65.21
2023-04-08T15:48:54.518Z,65.31
2023-04-08T15:51:25.388Z,65.14
2023-04-08T15:53:55.899Z,65.15
2023-04-08T15:56:26.248Z,65.46
2023-04-08T15:58:56.718Z,65.24
2023-04-08T16:01:27.517Z,65.88
2023-04-08T16:03:58.472Z,65.47
2023-04-08T16:06:30.613Z,66.13
2023-04-08T16:09:01.269Z,66.03
2023-04-08T16:11:32.184Z,65.65
2023-04-08T16:14:03.076Z,66.11
2023-04-08T16:16:34.608Z,65.83
2023-04-08T16:19:05.078Z,66.21
2023-04-08T16:21:35.505Z,66.08
2023-04-08T16:24:07.702Z,66.39
2023-04-08T16:26:38.113Z,65.30
2023-04-08T16:29:08.785Z,64.68
2023-04-08T16:31:40.209Z,63.90
2023-04-08T16:34:10.963Z,63.58
2023-04-08T16:36:41.527Z,63.27
2023-04-08T16:39:11.963Z,62.82
2023-04-08T16:41:42.717Z,62.56
2023-04-08T16:44:13.063Z,62.40
2023-04-08T16:46:43.536Z,62.40
2023-04-08T16:49:15.580Z,62.40
2023-04-08T16:51:47.222Z,61.95
2023-04-08T16:54:17.373Z,61.99
2023-04-08T16:56:48.832Z,61.65
2023-04-08T16:59:19.022Z,61.41
2023-04-08T17:01:49.386Z,61.16
2023-04-08T17:04:19.642Z,61.37
2023-04-08T17:06:51.083Z,61.20
2023-04-08T17:09:20.962Z,61.33
2023-04-08T17:11:51.665Z,61.09
2023-04-08T17:14:21.948Z,61.04
2023-04-08T17:16:52.470Z,60.92
2023-04-08T17:19:24.136Z,61.11
2023-04-08T17:21:54.627Z,60.96
2023-04-08T17:24:25.032Z,61.01
2023-04-08T17:26:55.438Z,60.95
2023-04-08T17:29:25.971Z,60.96
2023-04-08T17:31:56.782Z,60.79
2023-04-08T17:34:27.405Z,60.85
2023-04-08T17:36:57.770Z,60.91
2023-04-08T17:39:28.203Z,61.04
2023-04-08T17:41:59.856Z,61.02
2023-04-08T17:44:32.183Z,61.07
2023-04-08T17:47:03.079Z,61.28
2023-04-08T17:49:33.743Z,61.11
2023-04-08T17:52:04.297Z,61.12
2023-04-08T17:54:36.886Z,61.40
2023-04-08T17:57:07.233Z,60.95
2023-04-08T17:59:37.876Z,60.97
2023-04-08T18:02:08.483Z,61.09
2023-04-08T18:04:38.854Z,61.11
2023-04-08T18:07:09.102Z,61.15
2023-04-08T18:09:39.545Z,61.08
2023-04-08T18:12:09.876Z,60.90
2023-04-08T18:14:40.411Z,61.02
2023-04-08T18:17:10.977Z,60.82
2023-04-08T18:19:41.150Z,61.01
2023-04-08T18:22:11.305Z,60.77
2023-04-08T18:24:43.008Z,60.74
2023-04-08T18:27:13.700Z,60.92
2023-04-08T18:29:44.455Z,60.92
2023-04-08T18:32:15.413Z,61.18
2023-04-08T18:34:45.790Z,61.04
2023-04-08T18:37:19.200Z,60.98
2023-04-08T18:39:50.863Z,61.22
2023-04-08T18:42:21.429Z,60.98
2023-04-08T18:44:51.729Z,61.28
2023-04-08T18:47:22.515Z,60.98
2023-04-08T18:49:52.896Z,61.10
2023-04-08T18:52:23.272Z,61.04
2023-04-08T18:54:54.036Z,61.25
2023-04-08T18:57:24.542Z,61.31
2023-04-08T18:59:54.988Z,61.23
2023-04-08T19:02:25.438Z,61.29
2023-04-08T19:04:57.535Z,61.28
2023-04-08T19:07:27.890Z,61.42
2023-04-08T19:10:01.621Z,61.30
2023-04-08T19:12:31.940Z,61.22
2023-04-08T19:15:02.366Z,61.49
2023-04-08T19:17:32.982Z,61.46
2023-04-08T19:20:04.158Z,61.63
2023-04-08T19:22:34.523Z,61.60
2023-04-08T19:25:04.953Z,61.58
2023-04-08T19:27:35.519Z,62.05
2023-04-08T19:30:05.964Z,61.95
2023-04-08T19:32:39.414Z,61.83
2023-04-08T19:35:10.474Z,61.77
2023-04-08T19:37:41.041Z,61.84
2023-04-08T19:40:12.138Z,62.26
2023-04-08T19:42:42.376Z,62.15
2023-04-08T19:45:13.307Z,61.97
2023-04-08T19:47:47.233Z,62.18
2023-04-08T19:50:17.569Z,62.42
2023-04-08T19:52:47.889Z,62.35
2023-04-08T19:55:18.629Z,62.10
2023-04-08T19:57:48.905Z,62.27
2023-04-08T20:00:19.181Z,62.15
2023-04-08T20:02:49.566Z,62.32
2023-04-08T20:05:20.118Z,62.36
2023-04-08T20:07:50.771Z,62.42
2023-04-08T20:10:21.191Z,62.42
2023-04-08T20:12:51.675Z,62.47
2023-04-08T20:15:25.156Z,62.54
2023-04-08T20:17:56.676Z,62.25
2023-04-08T20:20:29.890Z,62.35
2023-04-08T20:23:00.666Z,62.47
2023-04-08T20:25:31.277Z,62.34
2023-04-08T20:28:01.703Z,62.23
2023-04-08T20:30:31.979Z,62.18
2023-04-08T20:33:02.521Z,62.27
2023-04-08T20:35:33.037Z,62.05
2023-04-08T20:38:03.475Z,62.11
2023-04-08T20:40:33.948Z,62.15
2023-04-08T20:43:04.944Z,62.33
2023-04-08T20:45:35.234Z,61.89
2023-04-08T20:48:05.732Z,61.83
2023-04-08T20:50:36.203Z,62.08
2023-04-08T20:53:06.602Z,62.01
2023-04-08T20:55:37.286Z,62.41
2023-04-08T20:58:09.942Z,62.10
2023-04-08T21:00:40.298Z,62.18
2023-04-08T21:03:10.649Z,62.21
2023-04-08T21:05:41.306Z,62.41
2023-04-08T21:08:12.053Z,62.35
2023-04-08T21:10:42.333Z,62.07
2023-04-08T21:13:12.755Z,62.27
2023-04-08T21:15:42.975Z,62.52
2023-04-08T21:18:13.670Z,62.36
2023-04-08T21:20:43.904Z,62.45
2023-04-08T21:23:15.372Z,62.40
2023-04-08T21:25:45.868Z,62.30
2023-04-08T21:28:16.552Z,62.61
2023-04-08T21:30:46.886Z,62.39
2023-04-08T21:33:17.925Z,62.61
2023-04-08T21:35:48.607Z,62.87
2023-04-08T21:38:18.766Z,62.49
2023-04-08T21:40:48.996Z,63.00
2023-04-08T21:43:19.338Z,62.75
2023-04-08T21:45:49.743Z,62.81
2023-04-08T21:48:20.105Z,62.91
2023-04-08T21:50:51.408Z,63.00
2023-04-08T21:53:23.074Z,63.24
2023-04-08T21:55:53.591Z,63.57
2023-04-08T21:58:24.051Z,63.44
2023-04-08T22:00:55.496Z,63.43
2023-04-08T22:03:25.799Z,63.46
2023-04-08T22:05:56.593Z,63.59
2023-04-08T22:08:26.809Z,63.46
2023-04-08T22:10:57.148Z,63.64
2023-04-08T22:13:27.488Z,63.71
2023-04-08T22:15:57.777Z,63.85
2023-04-08T22:18:28.228Z,64.05
2023-04-08T22:20:58.566Z,64.06
2023-04-08T22:23:28.847Z,63.92
2023-04-08T22:25:59.120Z,64.06
2023-04-08T22:28:29.527Z,64.00
2023-04-08T22:30:59.900Z,63.97
2023-04-08T22:33:33.019Z,64.15
2023-04-08T22:36:03.646Z,64.11
2023-04-08T22:38:34.555Z,64.35
2023-04-08T22:41:04.910Z,64.12
2023-04-08T22:43:35.343Z,64.45
2023-04-08T22:46:05.641Z,64.26
2023-04-08T22:48:36.011Z,64.40
2023-04-08T22:51:06.571Z,64.31
2023-04-08T22:53:37.330Z,64.25
2023-04-08T22:56:08.070Z,64.26
2023-04-08T22:58:38.674Z,64.85
2023-04-08T23:01:20.194Z,64.47
2023-04-08T23:03:50.932Z,64.64
2023-04-08T23:06:21.383Z,64.89
2023-04-08T23:08:51.916Z,65.01
2023-04-08T23:11:22.365Z,64.98
2023-04-08T23:13:52.748Z,64.86
2023-04-08T23:16:23.951Z,65.00
2023-04-08T23:18:54.606Z,64.89
2023-04-08T23:21:26.014Z,64.92
2023-04-08T23:23:56.432Z,65.74
2023-04-08T23:26:27.725Z,65.82
2023-04-08T23:28:58.360Z,65.54
2023-04-08T23:31:28.762Z,66.04
2023-04-08T23:33:59.107Z,66.45
2023-04-08T23:36:31.228Z,66.76
2023-04-08T23:39:01.985Z,66.61
2023-04-08T23:41:32.353Z,66.86
2023-04-08T23:44:02.714Z,66.95
2023-04-08T23:46:33.155Z,66.64
2023-04-08T23:49:03.492Z,67.00
2023-04-08T23:51:33.873Z,67.45
2023-04-08T23:54:04.759Z,67.28
2023-04-08T23:56:35.149Z,67.59
2023-04-08T23:59:05.408Z,67.55
